METAR Data
IDs: Format: Raw Decoded Include TAF

Data at: 1639 UTC 21 Sep 2018

ETSI 211620Z 28010KT 9999 FEW070 SCT080 BKN100 22/14 Q1011 BLU